Map

Track Data

SID SEASON NUMBER BASIN SUBBASIN NAME ISO_TIME NATURE LAT LON WMO_WIND WMO_PRES WMO_AGENCY TRACK_TYPE DIST2LAND LANDFALL IFLAG USA_AGENCY USA_ATCF_ID USA_LAT USA_LON USA_RECORD USA_STATUS USA_WIND USA_PRES USA_SSHS USA_R34_NE USA_R34_SE USA_R34_SW USA_R34_NW USA_R50_NE USA_R50_SE USA_R50_SW USA_R50_NW USA_R64_NE USA_R64_SE USA_R64_SW USA_R64_NW USA_POCI USA_ROCI USA_RMW USA_EYE TOKYO_LAT TOKYO_LON TOKYO_GRADE TOKYO_WIND TOKYO_PRES TOKYO_R50_DIR TOKYO_R50_LONG TOKYO_R50_SHORT TOKYO_R30_DIR TOKYO_R30_LONG TOKYO_R30_SHORT TOKYO_LAND CMA_LAT CMA_LON CMA_CAT CMA_WIND CMA_PRES HKO_LAT HKO_LON HKO_CAT HKO_WIND HKO_PRES NEWDELHI_LAT NEWDELHI_LON NEWDELHI_GRADE NEWDELHI_WIND NEWDELHI_PRES NEWDELHI_CI NEWDELHI_DP NEWDELHI_POCI REUNION_LAT REUNION_LON REUNION_TYPE REUNION_WIND REUNION_PRES REUNION_TNUM REUNION_CI REUNION_RMW REUNION_R34_NE REUNION_R34_SE REUNION_R34_SW REUNION_R34_NW REUNION_R50_NE REUNION_R50_SE REUNION_R50_SW REUNION_R50_NW REUNION_R64_NE REUNION_R64_SE REUNION_R64_SW REUNION_R64_NW BOM_LAT BOM_LON BOM_TYPE BOM_WIND BOM_PRES BOM_TNUM BOM_CI BOM_RMW BOM_R34_NE BOM_R34_SE BOM_R34_SW BOM_R34_NW BOM_R50_NE BOM_R50_SE BOM_R50_SW BOM_R50_NW BOM_R64_NE BOM_R64_SE BOM_R64_SW BOM_R64_NW BOM_ROCI BOM_POCI BOM_EYE BOM_POS_METHOD BOM_PRES_METHOD NADI_LAT NADI_LON NADI_CAT NADI_WIND NADI_PRES WELLINGTON_LAT WELLINGTON_LON WELLINGTON_WIND WELLINGTON_PRES DS824_LAT DS824_LON DS824_STAGE DS824_WIND DS824_PRES TD9636_LAT TD9636_LON TD9636_STAGE TD9636_WIND TD9636_PRES TD9635_LAT TD9635_LON TD9635_WIND TD9635_PRES TD9635_ROCI NEUMANN_LAT NEUMANN_LON NEUMANN_CLASS NEUMANN_WIND NEUMANN_PRES MLC_LAT MLC_LON MLC_CLASS MLC_WIND MLC_PRES USA_GUST BOM_GUST BOM_GUST_PER REUNION_GUST REUNION_GUST_PER USA_SEAHGT USA_SEARAD_NE USA_SEARAD_SE USA_SEARAD_SW USA_SEARAD_NW STORM_SPEED STORM_DIR
1952165N15261 1952 32 EP MM NOT_NAMED 1952-06-12 12:00:00 TS 14.6000 -99.3000 45 hurdat_epa main 204 203 O________OO___ hurdat_epa EP021952 14.6000 -99.3000 TS 45 0 14.6000 -99.3000 TC 45 14.6000 -99.3000 2 7 285
1952165N15261 1952 32 EP MM NOT_NAMED 1952-06-12 15:00:00 TS 14.6931 -99.6520 main 214 213 P________PP___ EP021952 14.6951 -99.6474 TS 45 0 14.6951 -99.6474 TC 45 14.6850 -99.6703 2 7 286
1952165N15261 1952 32 EP MM NOT_NAMED 1952-06-12 18:00:00 TS 14.7971 -100.007 45 hurdat_epa main 215 208 O________OP___ hurdat_epa EP021952 14.8000 -100.000 TS 45 0 14.8000 -100.000 TC 45 14.7857 -100.033 2 7 289
1952165N15261 1952 32 EP MM NOT_NAMED 1952-06-12 21:00:00 TS 14.9257 -100.362 main 214 203 P________PP___ EP021952 14.9275 -100.358 TS 45 0 14.9275 -100.358 TC 45 14.9186 -100.379 2 7 294
1952165N15261 1952 32 EP MM NOT_NAMED 1952-06-13 00:00:00 TS 15.1000 -100.700 45 hurdat_epa main 208 202 O________OO___ hurdat_epa EP021952 15.1000 -100.700 TS 45 0 15.1000 -100.700 TC 45 15.1000 -100.700 2 7 303
1952165N15261 1952 32 EP MM NOT_NAMED 1952-06-13 03:00:00 TS 15.3355 -101.005 main 208 183 P________PP___ EP021952 15.3349 -101.008 TS 45 0 15.3349 -101.008 TC 45 15.3380 -100.994 2 8 311
1952165N15261 1952 32 EP MM NOT_NAMED 1952-06-13 06:00:00 TS 15.6014 -101.295 45 hurdat_epa main 186 165 O________OP___ hurdat_epa EP021952 15.6000 -101.300 TS 45 0 15.6000 -101.300 TC 45 15.6069 -101.277 2 8 314
1952165N15261 1952 32 EP MM NOT_NAMED 1952-06-13 09:00:00 TS 15.8724 -101.582 main 165 153 P________PP___ EP021952 15.8724 -101.585 TS 45 0 15.8724 -101.585 TC 45 15.8723 -101.572 2 8 311
1952165N15261 1952 32 EP MM NOT_NAMED 1952-06-13 12:00:00 TS 16.1000 -101.900 45 hurdat_epa main 159 156 O________OO___ hurdat_epa EP021952 16.1000 -101.900 TS 45 0 16.1000 -101.900 TC 45 16.1000 -101.900 2 8 298
1952165N15261 1952 32 EP MM NOT_NAMED 1952-06-13 15:00:00 TS 16.2250 -102.284 main 177 173 P________PP___ EP021952 16.2225 -102.278 TS 45 0 16.2225 -102.278 TC 45 16.2353 -102.310 2 8 285
1952165N15261 1952 32 EP MM NOT_NAMED 1952-06-13 18:00:00 TS 16.3061 -102.710 45 hurdat_epa main 184 183 O________OP___ hurdat_epa EP021952 16.3000 -102.700 TS 45 0 16.3000 -102.700 TC 45 16.3305 -102.751 2 9 281
1952165N15261 1952 32 EP MM NOT_NAMED 1952-06-13 21:00:00 TS 16.3961 -103.170 main 190 186 P________PP___ EP021952 16.3926 -103.165 TS 45 0 16.3926 -103.165 TC 45 16.4103 -103.191 2 9 283
1952165N15261 1952 32 EP MM NOT_NAMED 1952-06-14 00:00:00 TS 16.5000 -103.600 45 hurdat_epa main 193 186 O________OO___ hurdat_epa EP021952 16.5000 -103.600 TS 45 0 16.5000 -103.600 TC 45 16.5000 -103.600 2 8 289
1952165N15261 1952 32 EP MM NOT_NAMED 1952-06-14 03:00:00 TS 16.6433 -103.920 main 193 179 P________PP___ EP021952 16.6423 -103.923 TS 45 0 16.6423 -103.923 TC 45 16.6471 -103.912 2 6 298
1952165N15261 1952 32 EP MM NOT_NAMED 1952-06-14 06:00:00 TS 16.8013 -104.199 45 hurdat_epa main 183 178 O________OP___ hurdat_epa EP021952 16.8000 -104.200 TS 45 0 16.8000 -104.200 TC 45 16.8065 -104.193 2 6 301
1952165N15261 1952 32 EP MM NOT_NAMED 1952-06-14 09:00:00 TS 16.9584 -104.478 main 179 179 P________PP___ EP021952 16.9573 -104.478 TS 45 0 16.9573 -104.478 TC 45 16.9627 -104.477 2 6 297
1952165N15261 1952 32 EP MM NOT_NAMED 1952-06-14 12:00:00 TS 17.1000 -104.800 45 hurdat_epa main 192 192 O________OO___ hurdat_epa EP021952 17.1000 -104.800 TS 45 0 17.1000 -104.800 TC 45 17.1000 -104.800 2 8 289
1952165N15261 1952 32 EP MM NOT_NAMED 1952-06-14 15:00:00 TS 17.2114 -105.229 main 218 218 P________PP___ EP021952 17.2150 -105.228 TS 45 0 17.2150 -105.228 TC 45 17.1971 -105.235 2 9 283
1952165N15261 1952 32 EP MM NOT_NAMED 1952-06-14 18:00:00 TS 17.2946 -105.702 45 hurdat_epa main 232 232 O________OP___ hurdat_epa EP021952 17.3000 -105.700 TS 45 0 17.3000 -105.700 TC 45 17.2732 -105.708 2 9 279
1952165N15261 1952 32 EP MM NOT_NAMED 1952-06-14 21:00:00 TS 17.3535 -106.167 main 249 249 P________PP___ EP021952 17.3575 -106.165 TS 45 0 17.3575 -106.165 TC 45 17.3377 -106.176 2 9 277
1952165N15261 1952 32 EP MM NOT_NAMED 1952-06-15 00:00:00 TS 17.4000 -106.600 45 hurdat_epa main 276 276 O________OO___ hurdat_epa EP021952 17.4000 -106.600 TS 45 0 17.4000 -106.600 TC 45 17.4000 -106.600 2 8 277
1952165N15261 1952 32 EP MM NOT_NAMED 1952-06-15 03:00:00 TS 17.4465 -106.982 main 307 299 P________PP___ EP021952 17.4425 -106.988 TS 45 0 17.4425 -106.988 TC 45 17.4625 -106.958 2 7 279
1952165N15261 1952 32 EP MM NOT_NAMED 1952-06-15 06:00:00 TS 17.5054 -107.293 45 hurdat_epa main 322 322 O________OP___ hurdat_epa EP021952 17.5000 -107.300 TS 45 0 17.5000 -107.300 TC 45 17.5272 -107.263 2 5 285
1952165N15261 1952 32 EP MM NOT_NAMED 1952-06-15 09:00:00 TS 17.5886 -107.532 main 330 329 P________PP___ EP021952 17.5849 -107.538 TS 45 0 17.5849 -107.538 TC 45 17.6033 -107.511 2 4 297
1952165N15261 1952 32 EP MM NOT_NAMED 1952-06-15 12:00:00 TS 17.7000 -107.700 45 hurdat_epa main 337 337 O________OO___ hurdat_epa EP021952 17.7000 -107.700 TS 45 0 17.7000 -107.700 TC 45 17.7000 -107.700 2 4 312
1952165N15261 1952 32 EP MM NOT_NAMED 1952-06-15 15:00:00 TS 17.8388 -107.827 main 338 331 P________PP___ EP021952 17.8425 -107.823 TS 45 0 17.8425 -107.823 TC 45 17.8242 -107.845 2 4 326
1952165N15261 1952 32 EP MM NOT_NAMED 1952-06-15 18:00:00 TS 17.9939 -107.907 45 hurdat_epa main 333 326 O________OP___ hurdat_epa EP021952 18.0000 -107.900 TS 45 0 18.0000 -107.900 TC 45 17.9697 -107.933 2 3 337
1952165N15261 1952 32 EP MM NOT_NAMED 1952-06-15 21:00:00 TS 18.1461 -107.968 main 335 324 P________PP___ EP021952 18.1500 -107.965 TS 45 0 18.1500 -107.965 TC 45 18.1305 -107.979 2 3 344
1952165N15261 1952 32 EP MM NOT_NAMED 1952-06-16 00:00:00 TS 18.3000 -108.000 45 hurdat_epa main 324 317 O________OO___ hurdat_epa EP021952 18.3000 -108.000 TS 45 0 18.3000 -108.000 TC 45 18.3000 -108.000 2 3 354
1952165N15261 1952 32 EP MM NOT_NAMED 1952-06-16 03:00:00 TS 18.4486 -108.008 main 317 305 P________PP___ EP021952 18.4425 -108.008 TS 45 0 18.4425 -108.008 TC 45 18.4729 -108.009 2 3 0
1952165N15261 1952 32 EP MM NOT_NAMED 1952-06-16 06:00:00 TS 18.6095 -108.002 45 hurdat_epa main 305 294 O________OP___ hurdat_epa EP021952 18.6000 -108.000 TS 45 0 18.6000 -108.000 TC 45 18.6476 -108.010 2 4 0
1952165N15261 1952 32 EP MM NOT_NAMED 1952-06-16 09:00:00 TS 18.7967 -107.999 main 294 284 P________PP___ EP021952 18.7900 -107.997 TS 45 0 18.7900 -107.997 TC 45 18.8235 -108.006 2 4 0
1952165N15261 1952 32 EP MM NOT_NAMED 1952-06-16 12:00:00 TS 19.0000 -108.000 45 hurdat_epa main 284 O________OO___ hurdat_epa EP021952 19.0000 -108.000 TS 45 0 19.0000 -108.000 TC 45 19.0000 -108.000 2 4 0

About IBTrACS Database

This database is a web-friendly format of International Best Track Archive for Climate Stewardship (IBTrACS), a global best track data archive curated by NOAA dating back to 1842.

Updated: 2021-12-06